Time;durP1;ratioP1;P1;durP2;ratioP2;P2;SDS_P1;SDS_P2;PMS_P1;PMS_P2;Temp;Humidity;BMP_temperature;BMP_pressure;BME280_temperature;BME280_humidity;BME280_pressure;Samples;Min_cycle;Max_cycle;Signal;HPM_P1;HPM_P2
2021/08/17 00:01:56;;;;;;;17.95;7.43;;;27.20;96.70;;;;;;5018471;28;20414;-75
2021/08/17 00:04:28;;;;;;;11.85;5.53;;;27.30;96.70;;;;;;5009139;28;20045;-76
2021/08/17 00:06:58;;;;;;;15.02;6.18;;;27.20;96.70;;;;;;5016300;28;20108;-76
2021/08/17 00:09:26;;;;;;;15.77;6.55;;;27.10;96.70;;;;;;5017858;28;20045;-75
2021/08/17 00:11:55;;;;;;;12.57;5.93;;;27.10;96.70;;;;;;5020575;28;20128;-75
2021/08/17 00:14:23;;;;;;;14.98;6.03;;;27.10;96.70;;;;;;5005824;28;20350;-75
2021/08/17 00:16:51;;;;;;;14.05;6.78;;;27.10;96.70;;;;;;5016674;28;20425;-75
2021/08/17 00:19:20;;;;;;;10.55;6.20;;;27.10;96.70;;;;;;5029337;28;20313;-75
2021/08/17 00:21:48;;;;;;;13.20;6.38;;;26.90;96.70;;;;;;5023235;28;20702;-75
2021/08/17 00:24:18;;;;;;;14.25;6.50;;;26.90;96.70;;;;;;5008894;28;20140;-76
2021/08/17 00:26:47;;;;;;;11.25;5.80;;;26.90;96.70;;;;;;5045296;28;20053;-75
2021/08/17 00:29:15;;;;;;;17.40;6.78;;;26.80;96.70;;;;;;5027565;28;20523;-75
2021/08/17 00:31:43;;;;;;;11.75;5.57;;;26.70;96.70;;;;;;5020774;28;20063;-75
2021/08/17 00:34:14;;;;;;;15.43;6.53;;;26.70;96.70;;;;;;5041636;28;20051;-76
2021/08/17 00:36:42;;;;;;;17.42;6.20;;;26.80;96.70;;;;;;5043568;28;20968;-75
2021/08/17 00:39:11;;;;;;;14.05;5.95;;;26.90;96.70;;;;;;5028954;28;20053;-76
2021/08/17 00:41:41;;;;;;;18.60;6.88;;;26.90;96.70;;;;;;5041247;28;20358;-75
2021/08/17 00:44:18;;;;;;;13.93;6.20;;;27.00;96.70;;;;;;5023696;28;20053;-75
2021/08/17 00:46:46;;;;;;;13.07;6.05;;;26.90;96.70;;;;;;5039824;28;20117;-75
2021/08/17 00:49:15;;;;;;;15.52;5.47;;;26.90;96.70;;;;;;5021151;28;20671;-75
2021/08/17 00:51:44;;;;;;;14.18;6.18;;;26.80;96.70;;;;;;5004532;28;20056;-76
2021/08/17 00:54:13;;;;;;;12.88;5.82;;;26.70;96.70;;;;;;5024766;28;20509;-75
2021/08/17 00:56:43;;;;;;;16.27;6.90;;;26.50;96.70;;;;;;5009636;28;20041;-75
2021/08/17 00:59:11;;;;;;;13.75;6.45;;;26.50;96.70;;;;;;5033854;28;20123;-75
2021/08/17 01:01:39;;;;;;;14.13;6.10;;;26.40;96.70;;;;;;5025474;28;20410;-75
2021/08/17 01:04:09;;;;;;;11.70;5.47;;;26.40;96.70;;;;;;5046458;28;20045;-75
2021/08/17 01:06:38;;;;;;;17.58;6.18;;;26.50;96.70;;;;;;5042198;28;20112;-75
2021/08/17 01:09:08;;;;;;;14.82;6.03;;;26.50;96.70;;;;;;5040050;28;20041;-76
2021/08/17 01:11:36;;;;;;;12.98;5.97;;;26.50;96.70;;;;;;5013632;28;20240;-75
2021/08/17 01:14:06;;;;;;;13.05;5.82;;;26.50;96.70;;;;;;5032319;28;20135;-75
2021/08/17 01:16:34;;;;;;;13.40;6.18;;;26.50;96.70;;;;;;5035233;28;20056;-75
2021/08/17 01:19:03;;;;;;;9.02;4.95;;;26.50;96.70;;;;;;5046180;28;20059;-75
2021/08/17 01:21:33;;;;;;;16.33;6.15;;;26.60;96.70;;;;;;5046780;28;20041;-75
2021/08/17 01:24:02;;;;;;;11.18;5.78;;;26.50;96.70;;;;;;5007333;28;20455;-75
2021/08/17 01:26:32;;;;;;;14.43;6.40;;;26.50;96.70;;;;;;5027895;28;20044;-75
2021/08/17 01:29:00;;;;;;;14.13;5.63;;;26.30;96.70;;;;;;5045716;28;20048;-75
2021/08/17 01:31:30;;;;;;;10.82;5.78;;;26.30;96.70;;;;;;5012036;28;20037;-75
2021/08/17 01:33:59;;;;;;;12.77;6.00;;;26.30;96.70;;;;;;5025276;28;20049;-75
2021/08/17 01:36:27;;;;;;;14.55;5.82;;;26.20;96.70;;;;;;5024887;28;20049;-74
2021/08/17 01:38:55;;;;;;;10.13;5.32;;;26.30;96.70;;;;;;5034018;28;20041;-75
2021/08/17 01:41:24;;;;;;;11.55;5.47;;;26.40;96.70;;;;;;5027205;28;20508;-75
2021/08/17 01:43:53;;;;;;;16.65;6.38;;;26.40;96.70;;;;;;5009979;28;20053;-75
2021/08/17 01:46:22;;;;;;;11.57;5.95;;;26.30;96.70;;;;;;5027886;28;20110;-75
2021/08/17 01:48:50;;;;;;;11.35;5.75;;;26.20;96.70;;;;;;5024494;28;20048;-75
2021/08/17 01:51:18;;;;;;;15.85;6.38;;;26.10;96.70;;;;;;5026147;28;20067;-75
2021/08/17 01:53:47;;;;;;;12.40;5.63;;;26.00;96.70;;;;;;5027765;28;20052;-75
2021/08/17 01:56:18;;;;;;;13.85;5.82;;;26.00;96.70;;;;;;5029057;28;20045;-75
2021/08/17 01:58:47;;;;;;;14.95;5.80;;;26.00;96.70;;;;;;5016156;28;20065;-74
2021/08/17 02:01:18;;;;;;;13.45;5.90;;;26.00;96.70;;;;;;5044314;28;20040;-74
2021/08/17 02:03:47;;;;;;;12.75;5.68;;;26.10;96.70;;;;;;5026719;28;20060;-75
2021/08/17 02:06:16;;;;;;;13.50;5.95;;;26.00;96.70;;;;;;5027124;28;20036;-75
2021/08/17 02:08:44;;;;;;;14.85;6.25;;;25.70;96.70;;;;;;5045265;28;20048;-75
2021/08/17 02:11:13;;;;;;;13.82;5.10;;;25.60;96.70;;;;;;5024957;28;20047;-75
2021/08/17 02:13:41;;;;;;;14.18;5.90;;;25.60;96.70;;;;;;5041573;28;20033;-75
2021/08/17 02:16:09;;;;;;;13.80;5.90;;;25.70;96.70;;;;;;5027570;28;20723;-75
2021/08/17 02:18:39;;;;;;;13.60;5.15;;;25.90;96.70;;;;;;5028510;28;20128;-75
2021/08/17 02:21:07;;;;;;;11.70;5.45;;;25.90;96.70;;;;;;5037342;28;20048;-75
2021/08/17 02:23:36;;;;;;;17.35;6.13;;;25.80;96.70;;;;;;5014457;28;20419;-75
2021/08/17 02:26:04;;;;;;;9.23;5.45;;;25.80;96.70;;;;;;5027964;28;20048;-75
2021/08/17 02:28:32;;;;;;;14.90;5.95;;;25.80;96.70;;;;;;5041499;28;21075;-75
2021/08/17 02:31:00;;;;;;;13.60;5.47;;;25.90;96.70;;;;;;5025340;28;20079;-75
2021/08/17 02:33:28;;;;;;;12.02;5.75;;;25.80;96.70;;;;;;5038135;28;20042;-75
2021/08/17 02:35:58;;;;;;;11.43;5.38;;;25.80;96.70;;;;;;5042138;28;20049;-74
2021/08/17 02:38:26;;;;;;;13.68;5.70;;;25.70;96.70;;;;;;5027254;28;20033;-75
2021/08/17 02:40:54;;;;;;;11.85;5.47;;;25.70;96.70;;;;;;5022558;28;20725;-75
2021/08/17 02:43:25;;;;;;;12.73;5.85;;;25.70;96.70;;;;;;5049289;28;20536;-75
2021/08/17 02:45:55;;;;;;;11.52;5.18;;;25.80;96.70;;;;;;5042184;28;20116;-75
2021/08/17 02:48:24;;;;;;;9.85;5.15;;;25.80;96.70;;;;;;5035477;28;20369;-74
2021/08/17 02:50:53;;;;;;;13.65;5.55;;;25.70;96.70;;;;;;5025599;28;20045;-75
2021/08/17 02:53:22;;;;;;;14.98;6.30;;;25.60;96.70;;;;;;5025814;28;20080;-75
2021/08/17 02:55:51;;;;;;;9.85;5.35;;;25.60;96.70;;;;;;5024055;28;20452;-75
2021/08/17 02:58:19;;;;;;;9.80;5.20;;;25.60;96.70;;;;;;5026995;28;20128;-75
2021/08/17 03:00:47;;;;;;;11.02;5.40;;;25.60;96.70;;;;;;5009517;28;20045;-75
2021/08/17 03:07:01;;;;;;;12.40;5.15;;;25.40;96.70;;;;;;5043585;28;20045;-75
2021/08/17 03:09:31;;;;;;;9.77;5.07;;;25.50;96.70;;;;;;5023276;28;20036;-75
2021/08/17 03:12:00;;;;;;;14.02;5.82;;;25.60;96.70;;;;;;5025736;28;20663;-74
2021/08/17 03:14:33;;;;;;;12.25;5.20;;;25.50;96.70;;;;;;5025328;28;20143;-75
2021/08/17 03:17:03;;;;;;;11.85;5.63;;;25.40;96.70;;;;;;5022881;28;20045;-75
2021/08/17 03:19:33;;;;;;;11.43;5.35;;;25.40;96.70;;;;;;5044309;28;20491;-75
2021/08/17 03:22:02;;;;;;;10.18;5.20;;;25.30;96.70;;;;;;5043279;28;20502;-75
2021/08/17 03:24:32;;;;;;;11.02;5.30;;;25.30;96.70;;;;;;5041393;28;20037;-74
2021/08/17 03:27:00;;;;;;;11.45;5.40;;;25.20;96.70;;;;;;5042319;28;20044;-75
2021/08/17 03:29:28;;;;;;;9.13;5.03;;;25.20;96.70;;;;;;5041340;28;20514;-74
2021/08/17 03:31:57;;;;;;;13.05;5.18;;;25.10;96.70;;;;;;5033975;28;20062;-75
2021/08/17 03:34:25;;;;;;;10.85;5.07;;;25.20;96.70;;;;;;5027640;28;20033;-75
2021/08/17 03:36:53;;;;;;;10.40;5.30;;;25.10;96.70;;;;;;5024246;28;20053;-74
2021/08/17 03:39:22;;;;;;;9.77;4.72;;;25.20;96.70;;;;;;5032157;28;20032;-75
2021/08/17 03:41:52;;;;;;;11.52;5.32;;;25.20;96.70;;;;;;5024635;28;20045;-74
2021/08/17 03:44:20;;;;;;;14.45;5.10;;;25.20;96.70;;;;;;5023374;28;20087;-75
2021/08/17 03:46:48;;;;;;;13.25;5.68;;;25.20;96.70;;;;;;5015509;28;20051;-75
2021/08/17 03:49:21;;;;;;;13.85;5.30;;;25.10;96.70;;;;;;5023178;28;20156;-74
2021/08/17 03:52:41;;;;;;;12.63;5.32;;;25.10;96.70;;;;;;5019829;28;20590;-74
2021/08/17 03:55:11;;;;;;;14.15;6.03;;;25.20;96.70;;;;;;5002268;28;20041;-75
2021/08/17 03:57:41;;;;;;;12.60;5.00;;;25.30;96.70;;;;;;5003861;28;20437;-75
2021/08/17 04:00:11;;;;;;;12.25;5.25;;;25.20;96.70;;;;;;5005861;28;20124;-74
2021/08/17 04:02:41;;;;;;;14.45;5.18;;;25.20;96.70;;;;;;5004651;28;20045;-74
2021/08/17 04:05:15;;;;;;;11.43;4.55;;;25.20;96.70;;;;;;4998217;28;20054;-75
2021/08/17 04:07:43;;;;;;;12.38;5.07;;;25.20;96.70;;;;;;5020029;28;20057;-75
2021/08/17 04:10:11;;;;;;;13.85;4.82;;;25.20;96.70;;;;;;5004144;28;20124;-75
2021/08/17 04:12:41;;;;;;;14.43;5.82;;;25.00;96.70;;;;;;5023690;28;20178;-74
2021/08/17 04:15:10;;;;;;;9.82;5.07;;;24.90;96.70;;;;;;4995588;28;20103;-74
2021/08/17 04:17:39;;;;;;;12.95;5.10;;;24.80;96.70;;;;;;5026963;28;20057;-75
2021/08/17 04:20:09;;;;;;;11.63;5.03;;;24.80;96.70;;;;;;4988803;28;20057;-75
2021/08/17 04:22:40;;;;;;;10.73;5.22;;;24.60;96.70;;;;;;4993301;28;20061;-75
2021/08/17 04:25:09;;;;;;;9.73;5.05;;;24.60;96.70;;;;;;5022462;28;20057;-75
2021/08/17 04:27:37;;;;;;;11.20;4.40;;;24.50;96.70;;;;;;5019111;28;20054;-75
2021/08/17 04:30:08;;;;;;;12.48;5.60;;;24.50;96.70;;;;;;5011040;28;20498;-75
2021/08/17 04:32:36;;;;;;;10.77;5.25;;;24.50;96.70;;;;;;5019184;28;20510;-75
2021/08/17 04:35:05;;;;;;;14.80;6.38;;;24.50;96.70;;;;;;5004515;28;20039;-75
2021/08/17 04:37:34;;;;;;;11.00;5.45;;;24.50;96.70;;;;;;5021416;28;20594;-75
2021/08/17 04:40:02;;;;;;;12.48;5.95;;;24.60;96.70;;;;;;5002852;28;20042;-75
2021/08/17 04:42:30;;;;;;;11.00;6.72;;;24.70;96.70;;;;;;5019771;28;20034;-76
2021/08/17 04:44:58;;;;;;;20.13;6.97;;;24.70;96.70;;;;;;5020162;28;20508;-75
2021/08/17 04:47:27;;;;;;;12.13;6.53;;;24.80;96.70;;;;;;5024995;28;20499;-75
2021/08/17 04:49:56;;;;;;;16.88;7.88;;;24.80;96.70;;;;;;5012055;28;20046;-76
2021/08/17 04:52:24;;;;;;;13.05;7.20;;;24.90;96.70;;;;;;5026424;28;20045;-75
2021/08/17 04:54:52;;;;;;;14.70;7.57;;;24.90;96.70;;;;;;5006415;28;20111;-75
2021/08/17 04:57:20;;;;;;;16.73;7.63;;;24.90;96.70;;;;;;5012424;28;20069;-75
2021/08/17 04:59:48;;;;;;;14.68;8.23;;;24.90;96.70;;;;;;5019613;28;20045;-75
2021/08/17 05:02:16;;;;;;;16.42;8.95;;;24.80;96.70;;;;;;5024877;28;20041;-76
2021/08/17 05:04:46;;;;;;;18.75;8.77;;;24.70;96.70;;;;;;5006198;28;20183;-76
2021/08/17 05:07:14;;;;;;;15.52;8.60;;;24.80;96.70;;;;;;5019489;28;20057;-76
2021/08/17 05:09:42;;;;;;;16.35;8.70;;;24.90;96.70;;;;;;4987942;28;20068;-76
2021/08/17 05:12:10;;;;;;;15.25;7.95;;;24.90;96.70;;;;;;5020280;28;20048;-76
2021/08/17 05:14:38;;;;;;;16.17;7.88;;;25.00;96.70;;;;;;5003466;28;20100;-76
2021/08/17 05:17:06;;;;;;;13.40;7.40;;;25.10;96.70;;;;;;5010715;28;20045;-76
2021/08/17 05:19:34;;;;;;;14.95;6.60;;;25.00;96.70;;;;;;4995309;28;20062;-76
2021/08/17 05:22:04;;;;;;;14.20;5.45;;;25.00;96.70;;;;;;5001291;28;20042;-75
2021/08/17 05:24:32;;;;;;;11.75;6.03;;;25.00;96.70;;;;;;5000374;28;20053;-76
2021/08/17 05:27:00;;;;;;;13.05;5.95;;;25.00;96.70;;;;;;4997496;28;20426;-76
2021/08/17 05:29:28;;;;;;;12.45;5.38;;;25.00;96.70;;;;;;4999376;28;20050;-76
2021/08/17 05:31:56;;;;;;;12.70;5.65;;;25.10;96.70;;;;;;5000598;28;20038;-76
2021/08/17 05:34:24;;;;;;;12.25;6.05;;;25.20;96.70;;;;;;5000009;28;20045;-76
2021/08/17 05:36:52;;;;;;;14.18;5.47;;;25.20;96.70;;;;;;4999167;28;20053;-76
2021/08/17 05:39:22;;;;;;;10.98;5.70;;;25.20;96.70;;;;;;4999647;28;20527;-76
2021/08/17 05:41:50;;;;;;;13.45;6.15;;;25.20;96.70;;;;;;4999313;28;20047;-76
2021/08/17 05:44:18;;;;;;;12.98;5.28;;;25.10;96.70;;;;;;5007540;28;20041;-76
2021/08/17 05:46:46;;;;;;;10.02;5.70;;;25.20;96.70;;;;;;5004772;28;20050;-76
2021/08/17 05:49:14;;;;;;;18.55;6.53;;;25.30;96.70;;;;;;5004209;28;20037;-76
2021/08/17 05:51:42;;;;;;;14.68;6.45;;;25.30;96.70;;;;;;4988288;28;20042;-75
2021/08/17 05:54:10;;;;;;;14.55;6.60;;;25.20;96.70;;;;;;4989175;28;20050;-76
2021/08/17 05:56:39;;;;;;;11.57;5.43;;;25.20;96.70;;;;;;5002732;28;20772;-76
2021/08/17 05:59:08;;;;;;;10.05;5.85;;;25.10;96.70;;;;;;4989121;28;20046;-76
2021/08/17 06:01:36;;;;;;;10.45;5.68;;;25.30;96.70;;;;;;5000121;28;20045;-76
2021/08/17 06:04:05;;;;;;;13.43;6.05;;;25.40;96.70;;;;;;5007074;28;20038;-76
2021/08/17 06:06:32;;;;;;;15.35;6.32;;;25.30;96.70;;;;;;4998981;28;20424;-76
2021/08/17 06:09:01;;;;;;;14.80;6.25;;;25.40;96.70;;;;;;5010557;28;20045;-76
2021/08/17 06:11:29;;;;;;;16.35;6.35;;;25.50;96.70;;;;;;5006386;28;20144;-76
2021/08/17 06:13:58;;;;;;;11.43;5.57;;;25.60;96.70;;;;;;5003793;28;20512;-76
2021/08/17 06:16:26;;;;;;;12.27;5.68;;;25.60;96.70;;;;;;5002594;28;20522;-76
2021/08/17 06:18:54;;;;;;;16.52;5.93;;;25.50;96.70;;;;;;5008671;28;20034;-76
2021/08/17 06:21:23;;;;;;;14.50;5.70;;;25.60;96.70;;;;;;5015484;28;20399;-76
2021/08/17 06:23:51;;;;;;;11.70;5.53;;;25.60;96.70;;;;;;5007605;28;20103;-76
2021/08/17 06:26:19;;;;;;;13.73;5.88;;;25.70;96.70;;;;;;5020276;28;20557;-76
2021/08/17 06:28:47;;;;;;;11.77;5.28;;;25.60;96.70;;;;;;5023932;28;20092;-76
2021/08/17 06:31:22;;;;;;;13.00;5.70;;;25.60;96.70;;;;;;5003521;28;20419;-76
2021/08/17 06:33:52;;;;;;;11.15;4.80;;;25.80;96.70;;;;;;5022419;28;20132;-76
2021/08/17 06:36:22;;;;;;;16.77;6.50;;;25.90;96.70;;;;;;5023074;28;20103;-76
2021/08/17 06:38:50;;;;;;;10.43;5.45;;;25.90;96.70;;;;;;5005723;28;20522;-76
2021/08/17 06:41:18;;;;;;;15.10;5.93;;;26.00;96.70;;;;;;5003414;28;20120;-76
2021/08/17 06:43:46;;;;;;;15.60;5.85;;;26.20;96.70;;;;;;5007375;28;20099;-76
2021/08/17 06:46:16;;;;;;;12.00;5.00;;;26.30;96.70;;;;;;5022361;28;20049;-76
2021/08/17 06:48:44;;;;;;;13.38;5.45;;;26.50;96.70;;;;;;5024016;28;20395;-75
2021/08/17 06:51:13;;;;;;;15.68;5.82;;;26.50;96.70;;;;;;5007227;28;20711;-76
2021/08/17 06:53:41;;;;;;;17.90;5.80;;;26.60;96.70;;;;;;5027328;28;20041;-76
2021/08/17 06:56:09;;;;;;;18.00;6.22;;;26.50;96.70;;;;;;5008868;28;20079;-76
2021/08/17 06:58:38;;;;;;;16.48;5.97;;;26.50;96.70;;;;;;5024725;28;20037;-76
2021/08/17 07:01:06;;;;;;;14.07;6.45;;;26.40;96.70;;;;;;4989510;28;20049;-76
2021/08/17 07:03:36;;;;;;;20.88;6.32;;;26.50;96.70;;;;;;5005982;28;20049;-76
2021/08/17 07:06:05;;;;;;;15.85;5.40;;;26.50;96.70;;;;;;5006370;28;20148;-76
2021/08/17 07:08:33;;;;;;;19.92;5.30;;;26.50;96.70;;;;;;5024668;28;20407;-76
2021/08/17 07:11:03;;;;;;;34.47;7.13;;;26.20;96.70;;;;;;5001301;28;20045;-76
2021/08/17 07:13:31;;;;;;;19.63;5.63;;;26.20;96.70;;;;;;4984756;28;20049;-76
2021/08/17 07:15:59;;;;;;;20.27;5.80;;;26.30;96.70;;;;;;5027113;28;20531;-76
2021/08/17 07:18:28;;;;;;;18.00;5.60;;;26.30;96.70;;;;;;5004406;28;20544;-75
2021/08/17 07:20:57;;;;;;;15.95;6.00;;;26.40;96.70;;;;;;5027358;28;20182;-76
2021/08/17 07:23:25;;;;;;;18.10;5.50;;;26.50;96.70;;;;;;5015699;28;20042;-76
2021/08/17 07:25:54;;;;;;;17.85;5.63;;;26.60;96.70;;;;;;5007162;28;20141;-76
2021/08/17 07:28:22;;;;;;;13.93;4.90;;;26.70;96.70;;;;;;5006601;28;20526;-76
2021/08/17 07:30:50;;;;;;;18.58;5.30;;;26.70;96.70;;;;;;5019248;28;20540;-76
2021/08/17 07:33:19;;;;;;;16.30;5.30;;;26.80;96.70;;;;;;5015191;28;20471;-76
2021/08/17 07:35:47;;;;;;;14.27;5.03;;;26.80;96.70;;;;;;5003073;28;20806;-76
2021/08/17 07:38:17;;;;;;;15.20;5.00;;;26.80;96.70;;;;;;5008344;28;20045;-76
2021/08/17 07:40:45;;;;;;;19.58;5.15;;;26.80;96.70;;;;;;5019263;28;20072;-75
2021/08/17 07:43:14;;;;;;;15.30;5.45;;;26.90;96.70;;;;;;5018537;28;20042;-76
2021/08/17 07:45:42;;;;;;;15.05;5.38;;;27.00;96.70;;;;;;5004887;28;20041;-76
2021/08/17 07:48:30;;;;;;;13.48;4.97;;;27.20;96.70;;;;;;5007618;28;20496;-76
2021/08/17 07:50:58;;;;;;;18.95;5.18;;;27.30;96.70;;;;;;5023488;28;20514;-76
2021/08/17 07:53:28;;;;;;;14.20;4.85;;;27.30;96.70;;;;;;5022058;28;20574;-76
2021/08/17 07:55:56;;;;;;;14.93;5.40;;;27.40;96.70;;;;;;5011129;28;20045;-76
2021/08/17 07:58:24;;;;;;;15.30;4.80;;;27.40;96.70;;;;;;5003493;28;20041;-76
2021/08/17 08:00:52;;;;;;;14.07;5.22;;;27.50;96.70;;;;;;5005914;28;20450;-75
2021/08/17 08:03:21;;;;;;;15.35;5.15;;;27.60;96.70;;;;;;5005090;28;20213;-75
2021/08/17 08:05:49;;;;;;;16.48;5.85;;;27.50;96.70;;;;;;5005776;28;20041;-76
2021/08/17 08:08:17;;;;;;;18.10;5.90;;;27.50;96.70;;;;;;5024641;28;20503;-76
2021/08/17 08:10:47;;;;;;;15.30;5.10;;;27.50;96.70;;;;;;5016162;28;20045;-76
2021/08/17 08:13:15;;;;;;;14.82;5.38;;;27.60;96.70;;;;;;5005001;28;20411;-76
2021/08/17 08:15:43;;;;;;;15.40;5.65;;;27.80;96.70;;;;;;4983393;28;20516;-76
2021/08/17 08:18:11;;;;;;;16.75;5.75;;;27.80;96.70;;;;;;5018648;28;20048;-76
2021/08/17 08:20:40;;;;;;;12.48;5.40;;;27.90;96.70;;;;;;5001115;28;20148;-76
2021/08/17 08:23:09;;;;;;;14.38;5.40;;;27.80;96.70;;;;;;5011320;28;20045;-76
2021/08/17 08:25:38;;;;;;;17.05;5.65;;;27.90;96.70;;;;;;4987770;28;20087;-76
2021/08/17 08:28:08;;;;;;;18.73;5.43;;;28.00;96.70;;;;;;5006337;28;20045;-76
2021/08/17 08:30:37;;;;;;;16.40;4.75;;;27.90;96.70;;;;;;5022868;28;20587;-76
2021/08/17 08:33:06;;;;;;;26.40;5.53;;;28.00;96.70;;;;;;5022053;28;20053;-76
2021/08/17 08:35:36;;;;;;;14.63;5.20;;;28.10;96.70;;;;;;5000706;28;20041;-76
2021/08/17 08:38:04;;;;;;;14.13;5.30;;;28.10;96.70;;;;;;5028250;28;20073;-76
2021/08/17 08:40:33;;;;;;;16.70;5.85;;;28.10;96.70;;;;;;5020754;28;20128;-76
2021/08/17 08:43:01;;;;;;;14.70;5.60;;;28.20;96.70;;;;;;5022735;28;20136;-76
2021/08/17 08:45:32;;;;;;;16.90;4.95;;;28.10;96.70;;;;;;5022910;28;20049;-76
2021/08/17 08:48:01;;;;;;;11.43;5.03;;;28.30;96.70;;;;;;4994380;28;20104;-76
2021/08/17 08:50:31;;;;;;;12.40;5.03;;;28.30;96.70;;;;;;5020512;28;20625;-76
2021/08/17 08:52:59;;;;;;;14.73;4.93;;;28.50;96.70;;;;;;5010878;28;20034;-76
2021/08/17 08:55:28;;;;;;;12.98;5.07;;;28.50;96.70;;;;;;5019841;28;20099;-75
2021/08/17 08:57:56;;;;;;;18.30;5.53;;;28.50;96.70;;;;;;5004325;28;20042;-75
2021/08/17 09:00:25;;;;;;;18.05;5.63;;;28.60;96.70;;;;;;5007543;28;20491;-78
2021/08/17 09:02:58;;;;;;;16.20;5.30;;;28.60;96.70;;;;;;5006469;28;20049;-77
2021/08/17 09:05:28;;;;;;;14.75;5.03;;;28.70;96.70;;;;;;4993654;28;20427;-76
2021/08/17 09:08:02;;;;;;;15.48;4.93;;;28.80;96.70;;;;;;5019544;28;20042;-76
2021/08/17 09:10:31;;;;;;;16.92;5.07;;;28.80;96.70;;;;;;5028418;28;20564;-75
2021/08/17 09:13:00;;;;;;;17.42;5.60;;;28.90;96.70;;;;;;5004333;28;20562;-76
2021/08/17 09:15:31;;;;;;;19.95;5.28;;;29.00;96.70;;;;;;5001412;28;20045;-75
2021/08/17 09:18:03;;;;;;;22.75;4.78;;;29.10;96.70;;;;;;5008928;28;20053;-75
2021/08/17 09:20:36;;;;;;;15.20;5.28;;;29.20;96.70;;;;;;5025942;28;20077;-76
2021/08/17 09:23:25;;;;;;;20.38;5.75;;;29.30;96.70;;;;;;5000174;28;20046;-76
2021/08/17 09:25:54;;;;;;;21.38;6.03;;;29.30;96.70;;;;;;5023920;28;20442;-76
2021/08/17 09:28:31;;;;;;;17.70;6.10;;;29.40;96.70;;;;;;5005355;28;20073;-77
2021/08/17 09:31:01;;;;;;;12.35;4.93;;;29.40;96.70;;;;;;5025248;28;20045;-78
2021/08/17 09:33:41;;;;;;;13.30;5.10;;;29.50;96.70;;;;;;4989174;28;20377;-79
2021/08/17 09:36:10;;;;;;;12.98;4.65;;;29.50;96.50;;;;;;5005433;28;20526;-79
2021/08/17 09:38:39;;;;;;;11.80;6.18;;;29.70;96.00;;;;;;5015777;28;20135;-80
2021/08/17 09:41:22;;;;;;;10.40;5.40;;;29.70;96.00;;;;;;4990709;28;20132;-80
2021/08/17 09:43:59;;;;;;;12.82;5.72;;;29.50;95.60;;;;;;4993857;28;20457;-75
2021/08/17 09:46:28;;;;;;;;;;;29.40;94.80;;;;;;5015623;28;20072;-75
2021/08/17 09:49:17;;;;;;;12.50;6.03;;;29.50;93.60;;;;;;5007394;28;19925;-77
2021/08/17 09:51:46;;;;;;;11.32;5.13;;;29.50;92.40;;;;;;5018977;28;20041;-77
2021/08/17 09:54:17;;;;;;;15.25;5.68;;;29.60;92.40;;;;;;5009089;28;20530;-76
2021/08/17 09:56:55;;;;;;;27.42;6.97;;;29.70;92.50;;;;;;5024586;28;20057;-76
2021/08/17 09:59:25;;;;;;;14.60;5.75;;;29.70;92.40;;;;;;5027315;28;20037;-76
2021/08/17 10:01:55;;;;;;;20.52;5.55;;;29.60;92.40;;;;;;5007003;28;20446;-76
2021/08/17 10:04:26;;;;;;;9.20;4.70;;;29.60;92.40;;;;;;5023361;28;20048;-79
2021/08/17 10:06:56;;;;;;;15.68;5.78;;;29.60;91.20;;;;;;5004019;28;20202;-81
2021/08/17 10:09:27;;;;;;;10.45;5.38;;;29.60;91.80;;;;;;4995053;28;20860;-81
2021/08/17 10:12:04;;;;;;;11.55;5.10;;;29.70;91.90;;;;;;5003253;28;20049;-81
2021/08/17 10:14:36;;;;;;;9.80;4.68;;;29.70;91.90;;;;;;4988866;28;20042;-78
2021/08/17 10:17:05;;;;;;;7.55;3.90;;;29.80;91.80;;;;;;5004221;28;20490;-78
2021/08/17 10:19:35;;;;;;;11.07;4.20;;;30.00;90.50;;;;;;5004148;28;20364;-79
2021/08/17 10:22:06;;;;;;;10.57;3.97;;;30.10;89.80;;;;;;5025086;28;20887;-80
2021/08/17 10:24:36;;;;;;;9.25;4.45;;;30.10;89.80;;;;;;5025988;28;20096;-81
2021/08/17 10:27:16;;;;;;;11.25;4.60;;;30.20;90.30;;;;;;5020339;28;20576;-77
2021/08/17 10:29:56;;;;;;;15.55;4.80;;;30.30;89.30;;;;;;5003322;28;20131;-77
2021/08/17 10:32:50;;;;;;;7.72;3.65;;;30.40;88.90;;;;;;5002357;28;20049;-76
2021/08/17 10:35:52;;;;;;;9.57;3.80;;;30.80;87.40;;;;;;5022465;28;20041;-77
2021/08/17 10:38:51;;;;;;;10.35;4.35;;;31.00;86.60;;;;;;5011600;28;20530;-79
2021/08/17 10:41:34;;;;;;;8.07;3.78;;;31.10;87.20;;;;;;4997927;28;20050;-78
2021/08/17 10:44:18;;;;;;;8.95;4.10;;;31.30;85.80;;;;;;5004501;28;20137;-80
2021/08/17 10:46:49;;;;;;;12.23;5.30;;;31.50;86.40;;;;;;5005100;28;20450;-81
2021/08/17 10:49:32;;;;;;;9.80;5.93;;;31.50;86.60;;;;;;5015781;28;20045;-81
2021/08/17 10:52:04;;;;;;;8.55;4.63;;;31.40;87.20;;;;;;5001228;28;20483;-78
2021/08/17 10:54:35;;;;;;;10.13;4.47;;;31.40;87.00;;;;;;4985544;28;20488;-78
2021/08/17 10:57:18;;;;;;;9.18;4.50;;;31.50;86.50;;;;;;5022532;28;20079;-78
2021/08/17 10:59:48;;;;;;;10.45;4.40;;;31.20;86.60;;;;;;5004671;28;20054;-78
2021/08/17 11:02:21;;;;;;;11.35;4.40;;;31.30;87.00;;;;;;5004357;28;20036;-78
2021/08/17 11:04:50;;;;;;;12.82;4.65;;;31.30;86.60;;;;;;5019396;28;20095;-78
2021/08/17 11:07:31;;;;;;;7.63;4.03;;;31.50;86.20;;;;;;5024565;28;20064;-78
2021/08/17 11:10:03;;;;;;;11.02;4.35;;;31.70;85.60;;;;;;5002111;28;20046;-78
2021/08/17 11:12:35;;;;;;;10.00;4.40;;;31.80;85.50;;;;;;5007430;28;20049;-78
2021/08/17 11:15:05;;;;;;;8.25;3.67;;;31.50;85.30;;;;;;5018221;28;20045;-78
2021/08/17 11:17:33;;;;;;;9.90;4.20;;;31.60;84.80;;;;;;5007300;28;20049;-78
2021/08/17 11:20:04;;;;;;;7.93;3.80;;;31.90;84.70;;;;;;5036921;28;20602;-78
2021/08/17 11:22:37;;;;;;;10.80;4.35;;;32.10;84.10;;;;;;5024618;28;20573;-78
2021/08/17 11:25:08;;;;;;;9.93;3.67;;;32.40;83.30;;;;;;5004060;28;20073;-78
2021/08/17 11:27:43;;;;;;;11.25;3.65;;;32.30;82.80;;;;;;5024209;28;20507;-78
2021/08/17 11:30:14;;;;;;;12.60;4.18;;;32.40;83.20;;;;;;5002241;28;20372;-78
2021/08/17 11:32:47;;;;;;;12.45;4.57;;;32.50;83.30;;;;;;5003784;28;20124;-78
2021/08/17 11:35:18;;;;;;;8.55;3.55;;;32.80;83.20;;;;;;5020442;28;20052;-78
2021/08/17 11:37:48;;;;;;;9.88;4.40;;;32.90;81.80;;;;;;4986879;28;20074;-77
2021/08/17 11:40:23;;;;;;;9.10;3.90;;;32.70;82.20;;;;;;5019338;28;20042;-78
2021/08/17 11:42:56;;;;;;;8.30;4.32;;;32.70;81.80;;;;;;4988324;28;20072;-78
2021/08/17 11:45:27;;;;;;;6.95;3.75;;;32.80;82.70;;;;;;5013098;28;20038;-78
2021/08/17 11:47:57;;;;;;;12.07;4.32;;;32.90;81.90;;;;;;4985768;28;20049;-78
2021/08/17 11:50:26;;;;;;;10.52;3.90;;;32.80;82.30;;;;;;5021195;28;20554;-77
2021/08/17 11:52:55;;;;;;;8.40;3.63;;;32.80;81.10;;;;;;4999190;28;20046;-78
2021/08/17 11:55:26;;;;;;;10.55;3.83;;;32.90;80.80;;;;;;4989173;28;20131;-78
2021/08/17 11:57:56;;;;;;;7.75;3.28;;;33.20;80.20;;;;;;5002495;28;20060;-78
2021/08/17 12:00:27;;;;;;;9.07;3.63;;;33.40;80.50;;;;;;5023285;28;20107;-78
2021/08/17 12:02:59;;;;;;;7.35;3.60;;;33.50;79.70;;;;;;5016447;28;20072;-78
2021/08/17 12:05:29;;;;;;;6.72;3.35;;;33.60;78.90;;;;;;4998713;28;20064;-78
2021/08/17 12:07:59;;;;;;;6.80;3.20;;;33.60;79.20;;;;;;5001927;28;20065;-78
2021/08/17 12:10:30;;;;;;;10.05;3.67;;;33.70;78.80;;;;;;4997792;28;20543;-78
2021/08/17 12:13:00;;;;;;;5.60;2.83;;;33.60;77.30;;;;;;4984878;28;20128;-78
2021/08/17 12:15:35;;;;;;;5.38;2.58;;;33.80;75.70;;;;;;5001858;28;20076;-78
2021/08/17 12:18:06;;;;;;;3.95;2.50;;;34.00;74.10;;;;;;5018080;28;20450;-78
2021/08/17 12:20:37;;;;;;;5.25;2.80;;;34.20;73.00;;;;;;5020801;28;20769;-78
2021/08/17 12:23:20;;;;;;;4.80;1.95;;;34.40;70.10;;;;;;5001250;28;21248;-78
2021/08/17 12:25:52;;;;;;;2.80;1.75;;;34.50;69.30;;;;;;4986253;28;20076;-78
2021/08/17 12:28:29;;;;;;;3.67;2.22;;;34.60;68.80;;;;;;4989820;28;20053;-78
2021/08/17 12:31:13;;;;;;;3.13;1.73;;;34.90;67.30;;;;;;5004425;28;20037;-78
2021/08/17 12:33:46;;;;;;;7.47;1.95;;;35.10;68.40;;;;;;4997499;28;20534;-78
2021/08/17 12:36:14;;;;;;;2.90;2.03;;;34.70;67.60;;;;;;5017469;28;20039;-78
2021/08/17 12:38:43;;;;;;;3.83;1.70;;;34.40;67.50;;;;;;5005033;28;20042;-78
2021/08/17 12:41:30;;;;;;;2.90;1.77;;;34.40;67.20;;;;;;4981959;28;20078;-78
2021/08/17 12:43:59;;;;;;;1.90;1.42;;;34.50;67.60;;;;;;5021755;28;20135;-78
2021/08/17 12:46:27;;;;;;;3.35;1.30;;;34.70;66.00;;;;;;4999621;28;20041;-78
2021/08/17 12:48:59;;;;;;;2.25;1.40;;;34.90;65.80;;;;;;5016076;28;20090;-78
2021/08/17 12:51:28;;;;;;;3.25;1.33;;;35.00;65.90;;;;;;5024555;28;20119;-78
2021/08/17 12:53:56;;;;;;;2.78;1.25;;;35.00;65.20;;;;;;5027405;28;20144;-78
2021/08/17 12:56:26;;;;;;;1.88;1.20;;;34.90;64.30;;;;;;5026136;28;20528;-78
2021/08/17 12:58:54;;;;;;;5.55;1.50;;;35.20;63.30;;;;;;5023491;28;20041;-78